Hauptseite
METAR-TAF:

Flughäfen :

Newquay Cornwall, England

Newquay Cornwall Airport

Breite: 50-26N, Länge: 005-00W, Höhe: 119 m

Beobachtung

Neuester Wetterbericht von vor 2 Stunden und 26 Minuten, um 19:50 UTC
Wind 13 kt aus West/Südwest
Temperatur 13°C
Luftfeuchtigkeit 82%
Luftdruck 1017 hPa
Sichtweite 10 km oder mehr
Aufgelockert bewölkt in der Höhe von 2500 ft

METAR: EGHQ 291950Z 25013KT 9999 SCT025 13/10 Q1017

Zeit: 23:16 (22:16 UTC)

Prognose

Neuester Wetterbericht von vor 5 Stunden und 15 Minuten, um 17:01 UTC
Gültige Prognose vom 29 um 18 UTC bis 29 um 21 UTC
Wind 14 kt aus West
Sichtweite 10 km oder mehr
Leicht bewölkt in der Höhe von 2500 ft
Wahrscheinlichkeit 30% :
Zeitweise
vom 29 um 18 UTC bis 29 um 21 UTC
Sichtweite: 8000 m
Regenschauer

TAF: EGHQ 291701Z 2918/2921 26014KT 9999 FEW025 PROB30 TEMPO 2918/2921 8000 SHRA

METAR-TAF

Wetterbeobachtungen und Prognosen von mehr als 4000 Flughäfen (METAR und TAF Bericht).

Die verfügbaren Stationen werden durch gelbe und rote Markierungen auf der Karte dargestellt.

Führen Sie die Maus auf sie, um den Namen der Station zu sehen.

Darauf klicken, um die Beobachtung von Wetterbeobachtungen und Prognosen zu sehen.

Um die Karte zu ändern : klicken Sie auf den grünen Tasten mit einem schwarzen Kreuz Zum Vergrößern, auf den grünen Button mit einem Gedankenstrich zu verkleinern, oder auf die grünen Pfeile für benachbarte Karten.


METAR-TAF: